Decoded Metar for TJNR (ROOSEVELT ROADS in PUERTO RICO) (IATA:NRR) | Meteo·Mobile Aviation Weather
aviador You're here:

TJNR Decoded Metar

ROOSEVELT ROADS in PUERTO RICO
Report Time2019-10-18 12:53:00
UTC Time2019-10-18 13:47:40
Flight Rules vfr VFR
Wind060° at 08 kt
Visibility9999 m
Phenomena:N/A
Clouds:N/A
Expected CloudBase > 2,400 ft AGL from Temp-Dew spread
CeilingNone
Temp30°C (ISA +15)
Dew Point24°C (70% RH)
Heat Index35.0°C
QNH1015 hPa
Density Alt2,090 ft
Elevation39 ft
Report Wrong Elevation
Raw Report
TJNR 181253Z AUTO 06008KT 10SM CLR 30/24 A2998=

Extra information for TJNR:More info

Metar Taf Metar & Taf Last 4 Metars F.Rules Stats Wind Profile Meteogram Temp Stats Airport Information Weather charts Add Link Nearby VenuesMetar ALERT Operation Metar Decoded Social comments